Time;durP1;ratioP1;P1;durP2;ratioP2;P2;SDS_P1;SDS_P2;PMS_P1;PMS_P2;Temp;Humidity;BMP_temperature;BMP_pressure;BME280_temperature;BME280_humidity;BME280_pressure;Samples;Min_cycle;Max_cycle;Signal;HPM_P1;HPM_P2
2022/11/19 00:00:44;;;;;;;;;;;21.20;64.90;;;;;;6126062;23;20245;-67
2022/11/19 00:03:14;;;;;;;;;;;21.30;63.90;;;;;;6126322;23;19905;-66
2022/11/19 00:05:41;;;;;;;;;;;21.30;63.70;;;;;;6126343;23;19913;-67
2022/11/19 00:08:08;;;;;;;;;;;21.20;62.80;;;;;;6126217;23;19973;-66
2022/11/19 00:10:35;;;;;;;;;;;21.20;63.50;;;;;;6100090;23;19912;-67
2022/11/19 00:13:02;;;;;;;;;;;21.10;64.00;;;;;;6125738;23;19909;-67
2022/11/19 00:15:29;;;;;;;;;;;21.10;64.90;;;;;;6099817;23;20329;-67
2022/11/19 00:17:59;;;;;;;;;;;21.30;64.70;;;;;;6125728;23;19909;-67
2022/11/19 00:20:26;;;;;;;;;;;21.30;65.40;;;;;;6125850;23;19913;-67
2022/11/19 00:22:53;;;;;;;;;;;21.30;65.60;;;;;;6125643;23;19905;-66
2022/11/19 00:25:21;;;;;;;;;;;21.20;65.30;;;;;;6125871;23;20283;-67
2022/11/19 00:27:47;;;;;;;;;;;21.30;66.20;;;;;;6099723;23;20346;-67
2022/11/19 00:30:14;;;;;;;;;;;21.30;66.80;;;;;;6126000;23;19912;-67
2022/11/19 00:32:41;;;;;;;;;;;21.30;65.70;;;;;;6125941;23;19913;-67
2022/11/19 00:35:07;;;;;;;;;;;21.40;65.60;;;;;;6125918;23;19904;-66
2022/11/19 00:37:34;;;;;;;;;;;21.30;64.70;;;;;;6125944;23;19911;-67
2022/11/19 00:40:01;;;;;;;;;;;21.20;64.90;;;;;;6125814;23;19912;-67
2022/11/19 00:42:27;;;;;;;;;;;21.10;65.10;;;;;;6125651;23;19943;-66
2022/11/19 00:44:54;;;;;;;;;;;21.00;64.60;;;;;;6125684;23;19904;-66
2022/11/19 00:47:20;;;;;;;;;;;21.20;65.20;;;;;;6125521;23;20394;-67
2022/11/19 00:49:47;;;;;;;;;;;21.20;64.20;;;;;;6125548;23;19912;-66
2022/11/19 00:52:13;;;;;;;;;;;21.20;64.60;;;;;;6125637;23;19905;-67
2022/11/19 00:54:40;;;;;;;;;;;21.10;64.80;;;;;;6126046;23;20316;-67
2022/11/19 00:57:07;;;;;;;;;;;21.10;64.30;;;;;;6126111;23;19912;-67
2022/11/19 00:59:33;;;;;;;;;;;21.00;65.00;;;;;;6099639;23;19909;-66
2022/11/19 01:02:00;;;;;;;;;;;21.00;64.50;;;;;;6125428;23;19909;-67
2022/11/19 01:04:26;;;;;;;;;;;21.00;64.80;;;;;;6099823;23;19905;-67
2022/11/19 01:06:53;;;;;;;;;;;21.00;65.00;;;;;;6125663;23;20280;-67
2022/11/19 01:09:20;;;;;;;;;;;20.90;64.10;;;;;;6125833;23;19912;-67
2022/11/19 01:11:47;;;;;;;;;;;20.90;65.70;;;;;;6125721;23;19979;-66
2022/11/19 01:14:13;;;;;;;;;;;21.00;65.50;;;;;;6125379;23;19953;-67
2022/11/19 01:16:40;;;;;;;;;;;21.10;65.30;;;;;;6100094;23;19912;-67
2022/11/19 01:19:07;;;;;;;;;;;21.10;65.60;;;;;;6125239;23;20202;-67
2022/11/19 01:21:34;;;;;;;;;;;21.10;65.30;;;;;;6125740;23;20284;-67
2022/11/19 01:24:01;;;;;;;;;;;21.20;64.50;;;;;;6125733;23;19905;-67
2022/11/19 01:26:27;;;;;;;;;;;21.10;64.40;;;;;;6125247;23;19913;-66
2022/11/19 01:28:54;;;;;;;;;;;21.00;65.10;;;;;;6099388;23;20229;-67
2022/11/19 01:31:21;;;;;;;;;;;20.90;65.40;;;;;;6125614;23;19984;-67
2022/11/19 01:33:48;;;;;;;;;;;20.80;66.20;;;;;;6125285;23;19936;-66
2022/11/19 01:36:18;;;;;;;;;;;20.80;66.80;;;;;;6125397;23;19909;-66
2022/11/19 01:38:50;;;;;;;;;;;20.80;66.90;;;;;;6099540;23;20241;-66
2022/11/19 01:41:20;;;;;;;;;;;20.80;67.80;;;;;;6125361;23;19905;-66
2022/11/19 01:43:47;;;;;;;;;;;20.80;68.60;;;;;;6099861;23;20335;-66
2022/11/19 01:46:15;;;;;;;;;;;20.90;67.70;;;;;;6125516;23;19996;-67
2022/11/19 01:48:49;;;;;;;;;;;21.00;67.50;;;;;;6125535;23;19912;-66
2022/11/19 01:51:17;;;;;;;;;;;21.00;67.30;;;;;;6125423;23;19905;-67
2022/11/19 01:53:43;;;;;;;;;;;21.00;68.20;;;;;;6099503;23;20249;-66
2022/11/19 01:56:10;;;;;;;;;;;21.10;67.90;;;;;;6125331;23;19913;-67
2022/11/19 01:58:40;;;;;;;;;;;21.20;67.30;;;;;;6125072;23;19905;-67
2022/11/19 02:01:07;;;;;;;;;;;21.20;67.80;;;;;;6125344;23;19905;-66
2022/11/19 02:03:34;;;;;;;;;;;21.30;67.20;;;;;;6099522;23;19905;-67
2022/11/19 02:06:00;;;;;;;;;;;21.20;66.70;;;;;;6099292;23;20244;-66
2022/11/19 02:08:33;;;;;;;;;;;21.10;66.60;;;;;;6099783;23;20332;-67
2022/11/19 02:11:06;;;;;;;;;;;21.00;66.80;;;;;;6124971;23;19912;-67
2022/11/19 02:13:38;;;;;;;;;;;21.10;66.90;;;;;;6099741;23;19912;-66
2022/11/19 02:16:17;;;;;;;;;;;21.00;66.60;;;;;;6099099;23;19955;-66
2022/11/19 02:18:49;;;;;;;;;;;21.00;66.30;;;;;;6125166;23;19917;-66
2022/11/19 02:21:15;;;;;;;;;;;21.00;66.50;;;;;;6125444;23;19987;-66
2022/11/19 02:23:48;;;;;;;;;;;20.90;65.80;;;;;;6125254;23;19913;-66
2022/11/19 02:26:32;;;;;;;;;;;20.90;65.90;;;;;;6099388;23;19913;-65
2022/11/19 02:28:59;;;;;;;;;;;21.00;66.30;;;;;;6125035;23;19905;-66
2022/11/19 02:31:37;;;;;;;;;;;21.00;66.00;;;;;;6125063;23;19905;-67
2022/11/19 02:34:19;;;;;;;;;;;21.00;65.60;;;;;;6124000;23;20434;-66
2022/11/19 02:37:00;;;;;;;;;;;21.10;66.30;;;;;;6099448;23;19984;-66
2022/11/19 02:39:41;;;;;;;;;;;21.20;66.30;;;;;;6124813;23;19928;-66
2022/11/19 02:42:19;;;;;;;;;;;21.30;66.20;;;;;;6099541;23;19919;-66
2022/11/19 02:44:57;;;;;;;;;;;21.40;65.80;;;;;;6099685;23;19911;-66
2022/11/19 02:47:32;;;;;;;;;;;21.40;66.20;;;;;;6125004;23;19913;-66
2022/11/19 02:50:01;;;;;;;;;;;21.40;67.40;;;;;;6100058;23;20236;-67
2022/11/19 02:52:28;;;;;;;;;;;21.40;66.70;;;;;;6101093;23;19992;-66
2022/11/19 02:54:54;;;;;;;;;;;21.40;66.20;;;;;;6126455;23;19909;-66
2022/11/19 02:57:21;;;;;;;;;;;21.20;66.10;;;;;;6126282;23;19905;-66
2022/11/19 03:05:26;;;;;;;;;;;21.00;67.80;;;;;;6126860;23;19912;-66
2022/11/19 03:07:53;;;;;;;;;;;20.90;68.40;;;;;;6100385;23;19916;-66
2022/11/19 03:10:20;;;;;;;;;;;20.90;68.30;;;;;;6127023;23;19929;-66
2022/11/19 03:16:40;;;;;;;;;;;20.80;68.00;;;;;;6126894;23;19905;-67
2022/11/19 03:18:50;;;;;;;;;;;20.80;68.80;;;;;;6104350;23;19924;-66
2022/11/19 03:21:24;;;;;;;;;;;20.80;68.60;;;;;;6126856;23;19936;-67
2022/11/19 03:23:52;;;;;;;;;;;21.00;68.40;;;;;;6100962;23;19913;-67
2022/11/19 03:26:28;;;;;;;;;;;21.00;68.60;;;;;;6101017;23;20217;-66
2022/11/19 03:28:55;;;;;;;;;;;21.00;68.60;;;;;;6126422;23;19912;-66
2022/11/19 03:31:22;;;;;;;;;;;21.10;68.90;;;;;;6126632;23;19909;-65
2022/11/19 03:33:49;;;;;;;;;;;21.10;67.90;;;;;;6100703;23;20328;-66
2022/11/19 03:36:20;;;;;;;;;;;21.10;68.40;;;;;;6100824;23;19944;-66
2022/11/19 03:38:48;;;;;;;;;;;21.00;69.00;;;;;;6100702;23;19912;-67
2022/11/19 03:41:15;;;;;;;;;;;21.10;69.10;;;;;;6100624;23;20389;-66
2022/11/19 03:43:43;;;;;;;;;;;21.20;69.30;;;;;;6100234;23;19908;-67
2022/11/19 03:46:11;;;;;;;;;;;21.10;68.70;;;;;;6126120;23;19951;-66
2022/11/19 03:48:38;;;;;;;;;;;21.20;68.80;;;;;;6100510;23;19921;-66
2022/11/19 03:51:07;;;;;;;;;;;21.20;69.00;;;;;;6100581;23;19912;-66
2022/11/19 03:53:34;;;;;;;;;;;21.30;68.70;;;;;;6100314;23;20217;-66
2022/11/19 03:56:04;;;;;;;;;;;21.30;68.50;;;;;;6100395;23;19912;-66
2022/11/19 03:58:35;;;;;;;;;;;21.30;69.00;;;;;;6126066;23;19968;-67
2022/11/19 04:01:02;;;;;;;;;;;21.30;69.10;;;;;;6100332;23;19912;-67
2022/11/19 04:03:28;;;;;;;;;;;21.30;69.20;;;;;;6126284;23;20253;-66
2022/11/19 04:05:55;;;;;;;;;;;21.30;69.10;;;;;;6126101;23;19905;-66
2022/11/19 04:08:22;;;;;;;;;;;21.30;69.60;;;;;;6126137;23;20394;-66
2022/11/19 04:10:48;;;;;;;;;;;21.30;69.50;;;;;;6126138;23;19944;-67
2022/11/19 04:13:15;;;;;;;;;;;21.30;69.00;;;;;;6126206;23;19911;-66
2022/11/19 04:15:41;;;;;;;;;;;21.30;69.00;;;;;;6126600;23;20302;-66
2022/11/19 04:18:08;;;;;;;;;;;21.30;69.40;;;;;;6100109;23;19924;-66
2022/11/19 04:20:35;;;;;;;;;;;21.40;69.30;;;;;;6126199;23;19905;-66
2022/11/19 04:23:01;;;;;;;;;;;21.50;68.90;;;;;;6125915;23;19909;-67
2022/11/19 04:25:28;;;;;;;;;;;21.30;68.60;;;;;;6125974;23;20411;-66
2022/11/19 04:27:54;;;;;;;;;;;21.30;68.80;;;;;;6100594;23;19913;-65
2022/11/19 04:30:21;;;;;;;;;;;21.30;68.50;;;;;;6125782;23;19972;-66
2022/11/19 04:32:47;;;;;;;;;;;21.30;68.80;;;;;;6100459;23;19924;-66
2022/11/19 04:35:17;;;;;;;;;;;21.30;68.30;;;;;;6125306;23;19916;-66
2022/11/19 04:37:43;;;;;;;;;;;21.40;68.60;;;;;;6126060;23;19927;-67
2022/11/19 04:40:10;;;;;;;;;;;21.40;68.50;;;;;;6099796;23;19905;-66
2022/11/19 04:42:37;;;;;;;;;;;21.40;68.30;;;;;;6125958;23;19940;-66
2022/11/19 04:45:03;;;;;;;;;;;21.30;68.50;;;;;;6125859;23;19915;-66
2022/11/19 04:47:30;;;;;;;;;;;21.40;69.10;;;;;;6125585;23;19944;-66
2022/11/19 04:49:57;;;;;;;;;;;21.40;69.10;;;;;;6125965;23;19936;-66
2022/11/19 04:52:23;;;;;;;;;;;21.50;69.60;;;;;;6126004;23;19912;-67
2022/11/19 04:54:50;;;;;;;;;;;21.50;68.20;;;;;;6125956;23;20251;-66
2022/11/19 04:57:16;;;;;;;;;;;21.50;68.90;;;;;;6125543;23;19905;-66
2022/11/19 04:59:43;;;;;;;;;;;21.50;68.60;;;;;;6125906;23;19909;-65
2022/11/19 05:02:10;;;;;;;;;;;21.40;69.00;;;;;;6125933;23;20240;-66
2022/11/19 05:04:36;;;;;;;;;;;21.40;69.40;;;;;;6125499;23;19909;-66
2022/11/19 05:07:03;;;;;;;;;;;21.30;68.90;;;;;;6125734;23;20217;-66
2022/11/19 05:09:30;;;;;;;;;;;21.30;69.20;;;;;;6125854;23;19909;-66
2022/11/19 05:11:56;;;;;;;;;;;21.30;69.80;;;;;;6125494;23;19909;-66
2022/11/19 05:14:23;;;;;;;;;;;21.30;70.10;;;;;;6125256;23;19905;-66
2022/11/19 05:16:49;;;;;;;;;;;21.30;69.10;;;;;;6125759;23;19992;-66
2022/11/19 05:19:16;;;;;;;;;;;21.30;69.30;;;;;;6125458;23;19917;-66
2022/11/19 05:21:43;;;;;;;;;;;21.30;69.20;;;;;;6125637;23;19913;-66
2022/11/19 05:24:09;;;;;;;;;;;21.20;69.00;;;;;;6125653;23;19928;-66
2022/11/19 05:26:36;;;;;;;;;;;21.20;69.50;;;;;;6125380;23;19949;-66
2022/11/19 05:29:02;;;;;;;;;;;21.30;69.60;;;;;;6125396;23;20037;-66
2022/11/19 05:31:29;;;;;;;;;;;21.30;69.80;;;;;;6125570;23;19905;-66
2022/11/19 05:33:56;;;;;;;;;;;21.30;68.90;;;;;;6125352;23;19904;-66
2022/11/19 05:36:22;;;;;;;;;;;21.30;69.00;;;;;;6125389;23;19913;-66
2022/11/19 05:38:49;;;;;;;;;;;21.30;69.80;;;;;;6125476;23;19909;-66
2022/11/19 05:41:15;;;;;;;;;;;21.40;69.50;;;;;;6125559;23;19912;-66
2022/11/19 05:43:42;;;;;;;;;;;21.40;69.70;;;;;;6125554;23;19951;-66
2022/11/19 05:46:09;;;;;;;;;;;21.40;70.00;;;;;;6125533;23;19905;-66
2022/11/19 05:48:35;;;;;;;;;;;21.30;69.80;;;;;;6125367;23;19920;-66
2022/11/19 05:51:02;;;;;;;;;;;21.30;70.20;;;;;;6099362;23;19911;-66
2022/11/19 05:53:28;;;;;;;;;;;21.30;70.20;;;;;;6125433;23;19979;-66
2022/11/19 05:55:55;;;;;;;;;;;21.30;71.00;;;;;;6125220;23;19905;-66
2022/11/19 05:58:22;;;;;;;;;;;21.20;71.20;;;;;;6125395;23;19915;-66
2022/11/19 06:00:48;;;;;;;;;;;21.30;71.20;;;;;;6125399;23;19916;-66
2022/11/19 06:03:15;;;;;;;;;;;21.30;71.60;;;;;;6099718;23;20015;-66
2022/11/19 06:05:41;;;;;;;;;;;21.30;71.40;;;;;;6125324;23;20013;-66
2022/11/19 06:08:08;;;;;;;;;;;21.30;72.20;;;;;;6125271;23;19979;-66
2022/11/19 06:10:34;;;;;;;;;;;21.30;72.00;;;;;;6125375;23;19984;-66
2022/11/19 06:13:01;;;;;;;;;;;21.30;72.00;;;;;;6125510;23;20392;-66
2022/11/19 06:15:28;;;;;;;;;;;21.40;72.30;;;;;;6125086;23;19976;-66
2022/11/19 06:17:55;;;;;;;;;;;21.40;72.30;;;;;;6125061;23;19905;-66
2022/11/19 06:20:21;;;;;;;;;;;21.40;72.20;;;;;;6125307;23;19917;-66
2022/11/19 06:22:48;;;;;;;;;;;21.40;72.10;;;;;;6099340;23;19932;-66
2022/11/19 06:25:15;;;;;;;;;;;21.40;72.70;;;;;;6126916;23;19905;-66
2022/11/19 06:27:41;;;;;;;;;;;21.40;72.80;;;;;;6127075;23;19913;-66
2022/11/19 06:30:08;;;;;;;;;;;21.40;73.20;;;;;;6126702;23;20276;-66
2022/11/19 06:32:35;;;;;;;;;;;21.40;72.40;;;;;;6101292;23;19909;-66
2022/11/19 06:35:01;;;;;;;;;;;21.40;72.10;;;;;;6126972;23;19905;-66
2022/11/19 06:37:28;;;;;;;;;;;21.40;72.00;;;;;;6101120;23;19909;-66
2022/11/19 06:39:55;;;;;;;;;;;21.40;72.40;;;;;;6101140;23;20360;-66
2022/11/19 06:42:36;;;;;;;;;;;21.40;72.60;;;;;;6126820;23;20313;-66
2022/11/19 06:45:03;;;;;;;;;;;21.40;72.20;;;;;;6126997;23;19976;-66
2022/11/19 06:47:30;;;;;;;;;;;21.40;72.10;;;;;;6127110;23;19916;-66
2022/11/19 06:49:57;;;;;;;;;;;21.40;72.50;;;;;;6127034;23;19905;-66
2022/11/19 06:52:24;;;;;;;;;;;21.30;72.50;;;;;;6126900;23;19952;-66
2022/11/19 06:54:50;;;;;;;;;;;21.30;72.90;;;;;;6126811;23;19912;-66
2022/11/19 06:57:17;;;;;;;;;;;21.30;72.30;;;;;;6126892;23;19905;-66
2022/11/19 06:59:43;;;;;;;;;;;21.30;72.80;;;;;;6127108;23;20277;-66
2022/11/19 07:02:13;;;;;;;;;;;21.30;72.70;;;;;;6127027;23;19945;-66
2022/11/19 07:04:39;;;;;;;;;;;21.30;73.00;;;;;;6100858;23;19905;-66
2022/11/19 07:07:06;;;;;;;;;;;21.20;72.90;;;;;;6127073;23;19919;-66
2022/11/19 07:09:33;;;;;;;;;;;21.20;72.70;;;;;;6126622;23;19908;-66
2022/11/19 07:11:59;;;;;;;;;;;21.20;73.00;;;;;;6126719;23;20233;-66
2022/11/19 07:14:26;;;;;;;;;;;21.10;73.40;;;;;;6126525;23;19905;-66
2022/11/19 07:16:52;;;;;;;;;;;21.20;73.50;;;;;;6126951;23;19905;-66
2022/11/19 07:19:19;;;;;;;;;;;21.10;73.30;;;;;;6126631;23;19921;-65
2022/11/19 07:21:46;;;;;;;;;;;21.10;73.80;;;;;;6126638;23;19960;-66
2022/11/19 07:24:14;;;;;;;;;;;21.10;74.20;;;;;;6126609;23;19905;-66
2022/11/19 07:26:41;;;;;;;;;;;21.10;74.50;;;;;;6126489;23;19959;-66
2022/11/19 07:29:08;;;;;;;;;;;21.10;74.50;;;;;;6126544;23;19913;-66
2022/11/19 07:31:34;;;;;;;;;;;21.10;74.50;;;;;;6126710;23;20005;-66
2022/11/19 07:34:02;;;;;;;;;;;21.00;74.80;;;;;;6126544;23;19928;-66
2022/11/19 07:36:28;;;;;;;;;;;21.00;75.00;;;;;;6126056;23;19975;-66
2022/11/19 07:38:55;;;;;;;;;;;21.00;75.20;;;;;;6126294;23;20336;-66
2022/11/19 07:44:06;;;;;;;;;;;21.00;75.10;;;;;;6104774;23;19980;-66
2022/11/19 07:46:33;;;;;;;;;;;21.00;75.00;;;;;;6100769;23;20218;-66
2022/11/19 07:48:59;;;;;;;;;;;21.00;74.80;;;;;;6126072;23;19920;-66
2022/11/19 07:51:26;;;;;;;;;;;21.00;74.70;;;;;;6126496;23;19905;-66
2022/11/19 07:53:54;;;;;;;;;;;21.00;74.90;;;;;;6076613;23;20379;-66
2022/11/19 07:56:20;;;;;;;;;;;21.00;75.00;;;;;;6126394;23;19927;-66
2022/11/19 07:58:47;;;;;;;;;;;20.90;74.60;;;;;;6126049;23;19928;-66
2022/11/19 08:01:17;;;;;;;;;;;20.90;74.80;;;;;;6126119;23;19912;-66
2022/11/19 08:03:45;;;;;;;;;;;20.90;74.20;;;;;;6126414;23;19905;-67
2022/11/19 08:06:12;;;;;;;;;;;20.90;72.90;;;;;;6126120;23;19911;-65
2022/11/19 08:08:39;;;;;;;;;;;20.90;72.80;;;;;;6126115;23;19941;-66
2022/11/19 08:11:05;;;;;;;;;;;20.90;72.10;;;;;;6125957;23;19976;-66
2022/11/19 08:13:32;;;;;;;;;;;20.80;71.80;;;;;;6126170;23;19970;-66
2022/11/19 08:16:02;;;;;;;;;;;20.90;71.50;;;;;;6126232;23;19940;-66
2022/11/19 08:18:29;;;;;;;;;;;20.80;71.60;;;;;;6099997;23;19943;-66
2022/11/19 08:20:55;;;;;;;;;;;20.80;71.20;;;;;;6126038;23;20249;-67
2022/11/19 08:23:23;;;;;;;;;;;20.80;71.00;;;;;;6126704;23;19909;-66
2022/11/19 08:25:49;;;;;;;;;;;20.80;70.70;;;;;;6126135;23;19909;-66
2022/11/19 08:28:16;;;;;;;;;;;20.80;71.10;;;;;;6100072;23;20241;-66
2022/11/19 08:30:44;;;;;;;;;;;20.80;71.20;;;;;;6125926;23;19905;-66
2022/11/19 08:33:10;;;;;;;;;;;20.80;71.40;;;;;;6126152;23;19905;-65
2022/11/19 08:35:37;;;;;;;;;;;20.80;71.90;;;;;;6125784;23;19932;-66
2022/11/19 08:38:04;;;;;;;;;;;20.80;72.20;;;;;;6125928;23;19905;-66
2022/11/19 08:40:30;;;;;;;;;;;20.80;72.30;;;;;;6125843;23;20041;-66
2022/11/19 08:43:00;;;;;;;;;;;20.80;72.80;;;;;;6126046;23;19979;-66
2022/11/19 08:45:33;;;;;;;;;;;20.80;72.90;;;;;;6126028;23;19909;-66
2022/11/19 08:48:00;;;;;;;;;;;20.80;73.10;;;;;;6099806;23;19995;-66
2022/11/19 08:50:27;;;;;;;;;;;20.80;72.80;;;;;;6099993;23;19905;-66
2022/11/19 08:52:54;;;;;;;;;;;20.80;73.10;;;;;;6125839;23;20253;-66
2022/11/19 08:55:21;;;;;;;;;;;20.80;73.10;;;;;;6100213;23;19905;-66
2022/11/19 08:57:48;;;;;;;;;;;20.70;73.00;;;;;;6125810;23;19967;-66
2022/11/19 09:00:15;;;;;;;;;;;20.80;73.20;;;;;;6125235;23;19905;-66
2022/11/19 09:02:41;;;;;;;;;;;20.70;73.40;;;;;;6125496;23;19905;-66
2022/11/19 09:05:08;;;;;;;;;;;20.80;73.60;;;;;;6125800;23;19909;-66
2022/11/19 09:07:35;;;;;;;;;;;20.80;73.50;;;;;;6125351;23;19920;-66
2022/11/19 09:10:01;;;;;;;;;;;20.70;73.10;;;;;;6125616;23;19976;-66
2022/11/19 09:12:31;;;;;;;;;;;20.70;73.40;;;;;;6126037;23;19972;-66
2022/11/19 09:14:57;;;;;;;;;;;20.80;73.10;;;;;;6125691;23;19916;-66
2022/11/19 09:17:24;;;;;;;;;;;20.70;73.60;;;;;;6125844;23;19912;-66
2022/11/19 09:19:50;;;;;;;;;;;20.70;73.40;;;;;;6125427;23;20229;-66
2022/11/19 09:22:17;;;;;;;;;;;20.70;73.30;;;;;;6125566;23;20013;-66
2022/11/19 09:24:44;;;;;;;;;;;20.70;73.50;;;;;;6125490;23;19915;-66
2022/11/19 09:27:10;;;;;;;;;;;20.70;73.90;;;;;;6125975;23;19944;-66
2022/11/19 09:29:37;;;;;;;;;;;20.70;74.10;;;;;;6125679;23;20359;-66
2022/11/19 09:32:04;;;;;;;;;;;20.70;73.80;;;;;;6125516;23;19960;-66
2022/11/19 09:34:30;;;;;;;;;;;20.70;73.90;;;;;;6125465;23;19905;-66
2022/11/19 09:36:57;;;;;;;;;;;20.70;73.80;;;;;;6099812;23;20380;-66
2022/11/19 09:39:23;;;;;;;;;;;20.60;73.80;;;;;;6125927;23;19909;-66
2022/11/19 09:42:08;;;;;;;;;;;20.60;73.60;;;;;;6125545;23;19997;-66
2022/11/19 09:44:38;;;;;;;;;;;20.60;73.60;;;;;;6125647;23;19952;-66
2022/11/19 09:47:22;;;;;;;;;;;20.60;73.30;;;;;;6099560;23;19913;-66
2022/11/19 09:49:52;;;;;;;;;;;20.60;73.20;;;;;;6125534;23;19940;-66
2022/11/19 09:52:19;;;;;;;;;;;20.60;72.60;;;;;;6125375;23;19916;-66
2022/11/19 09:54:52;;;;;;;;;;;20.60;72.40;;;;;;6100173;23;19904;-66
2022/11/19 09:57:38;;;;;;;;;;;20.60;71.70;;;;;;6125053;23;19928;-66
2022/11/19 10:00:06;;;;;;;;;;;20.60;71.90;;;;;;6101351;23;20008;-65
2022/11/19 10:02:33;;;;;;;;;;;20.50;72.10;;;;;;6127317;23;19912;-65
2022/11/19 10:04:59;;;;;;;;;;;20.60;71.70;;;;;;6127633;23;20319;-66
2022/11/19 10:07:32;;;;;;;;;;;20.60;71.50;;;;;;6127191;23;19924;-66
2022/11/19 10:10:04;;;;;;;;;;;20.60;71.30;;;;;;6127347;23;19928;-66
2022/11/19 10:12:31;;;;;;;;;;;20.60;71.10;;;;;;6127159;23;19911;-65
2022/11/19 10:15:04;;;;;;;;;;;20.60;70.70;;;;;;6127359;23;20284;-66
2022/11/19 10:17:37;;;;;;;;;;;20.70;70.60;;;;;;6127071;23;19909;-66
2022/11/19 10:20:10;;;;;;;;;;;20.70;70.80;;;;;;6101338;23;19924;-66
2022/11/19 10:22:44;;;;;;;;;;;20.70;70.50;;;;;;6127335;23;20021;-66
2022/11/19 10:25:11;;;;;;;;;;;20.70;70.80;;;;;;6101262;23;19905;-66
2022/11/19 10:27:40;;;;;;;;;;;20.70;70.90;;;;;;6127057;23;19959;-66
2022/11/19 10:30:12;;;;;;;;;;;20.70;70.90;;;;;;6101176;23;19909;-66
2022/11/19 10:32:39;;;;;;;;;;;20.70;71.20;;;;;;6127334;23;19916;-66
2022/11/19 10:35:07;;;;;;;;;;;20.70;71.70;;;;;;6101592;23;19937;-66
2022/11/19 10:37:35;;;;;;;;;;;20.70;71.90;;;;;;6102411;23;19925;-69
2022/11/19 10:40:03;;;;;;;;;;;20.70;72.20;;;;;;6101543;23;19909;-71
2022/11/19 10:42:36;;;;;;;;;;;20.70;72.30;;;;;;6101476;23;19905;-72
2022/11/19 10:45:04;;;;;;;;;;;20.70;72.60;;;;;;6101474;23;19912;-71
2022/11/19 10:47:46;;;;;;;;;;;20.70;73.00;;;;;;6101261;23;19923;-71
2022/11/19 10:50:20;;;;;;;;;;;20.70;73.40;;;;;;6126692;23;20243;-71
2022/11/19 10:52:53;;;;;;;;;;;20.70;73.60;;;;;;6126936;23;20388;-71
2022/11/19 10:55:28;;;;;;;;;;;20.70;73.80;;;;;;6101318;23;20244;-71
2022/11/19 10:58:14;;;;;;;;;;;20.70;73.90;;;;;;6101399;23;19909;-71
2022/11/19 11:00:41;;;;;;;;;;;20.70;74.10;;;;;;6106448;23;19919;-70
2022/11/19 11:03:14;;;;;;;;;;;20.60;74.20;;;;;;6101337;23;20244;-70
2022/11/19 11:05:52;;;;;;;;;;;20.60;74.50;;;;;;6076617;23;20670;-70
2022/11/19 11:08:19;;;;;;;;;;;20.60;74.70;;;;;;6126717;23;19913;-70
2022/11/19 11:10:46;;;;;;;;;;;20.70;74.80;;;;;;6125794;23;19905;-70
2022/11/19 11:15:57;;;;;;;;;;;20.60;75.00;;;;;;6126825;23;19912;-70
2022/11/19 11:18:27;;;;;;;;;;;20.60;75.20;;;;;;6100959;23;19905;-70
2022/11/19 11:20:53;;;;;;;;;;;20.60;75.20;;;;;;6101155;23;20240;-70
2022/11/19 11:23:20;;;;;;;;;;;20.60;75.40;;;;;;6101276;23;19905;-70
2022/11/19 11:26:06;;;;;;;;;;;20.60;75.40;;;;;;6101103;23;20213;-69
2022/11/19 11:28:32;;;;;;;;;;;20.60;75.50;;;;;;6100350;23;19920;-70
2022/11/19 11:31:05;;;;;;;;;;;20.60;75.60;;;;;;6100796;23;19936;-70
2022/11/19 11:33:37;;;;;;;;;;;20.60;75.70;;;;;;6101151;23;19917;-70
2022/11/19 11:36:16;;;;;;;;;;;20.60;75.70;;;;;;6098410;23;19928;-69
2022/11/19 11:38:43;;;;;;;;;;;20.60;75.70;;;;;;6097022;23;19953;-70
2022/11/19 11:41:13;;;;;;;;;;;20.60;75.80;;;;;;6071640;23;19933;-69
2022/11/19 11:44:00;;;;;;;;;;;20.50;76.00;;;;;;6071809;23;19929;-70
2022/11/19 11:46:42;;;;;;;;;;;20.60;76.00;;;;;;6097309;23;19911;-70
2022/11/19 11:49:29;;;;;;;;;;;20.50;76.00;;;;;;6071688;23;19956;-70
2022/11/19 11:51:59;;;;;;;;;;;20.60;76.10;;;;;;6038505;23;19905;-69
2022/11/19 11:54:25;;;;;;;;;;;20.50;76.10;;;;;;6071749;23;20214;-69
2022/11/19 11:56:52;;;;;;;;;;;20.60;76.20;;;;;;6097611;23;19905;-69
2022/11/19 11:59:24;;;;;;;;;;;20.50;76.20;;;;;;6097171;23;19909;-69
2022/11/19 12:02:14;;;;;;;;;;;20.60;76.20;;;;;;6097504;23;19910;-70
2022/11/19 12:04:41;;;;;;;;;;;20.60;76.20;;;;;;6081863;23;20217;-70
2022/11/19 12:07:19;;;;;;;;;;;20.50;76.20;;;;;;6096922;23;19914;-70
2022/11/19 12:10:04;;;;;;;;;;;20.60;76.20;;;;;;6071196;23;20226;-70
2022/11/19 12:12:34;;;;;;;;;;;20.60;76.30;;;;;;6096984;23;19906;-70
2022/11/19 12:15:19;;;;;;;;;;;20.60;76.30;;;;;;6047605;23;20253;-69
2022/11/19 12:17:49;;;;;;;;;;;20.60;76.30;;;;;;6096639;23;19909;-70
2022/11/19 12:20:20;;;;;;;;;;;20.50;76.30;;;;;;6071605;23;19942;-70
2022/11/19 12:22:56;;;;;;;;;;;20.60;76.30;;;;;;6071651;23;20349;-69
2022/11/19 12:25:28;;;;;;;;;;;20.60;76.30;;;;;;6097244;23;19909;-69
2022/11/19 12:28:05;;;;;;;;;;;20.60;76.40;;;;;;6097103;23;19997;-69
2022/11/19 12:30:55;;;;;;;;;;;20.50;76.40;;;;;;6071513;23;20290;-70
2022/11/19 12:33:21;;;;;;;;;;;20.60;76.40;;;;;;6081801;23;20355;-70
2022/11/19 12:36:00;;;;;;;;;;;20.60;76.30;;;;;;6096924;23;19912;-70
2022/11/19 12:38:30;;;;;;;;;;;20.60;76.50;;;;;;6097294;23;19924;-70
2022/11/19 12:41:03;;;;;;;;;;;20.50;76.40;;;;;;6096967;23;19944;-69
2022/11/19 12:43:41;;;;;;;;;;;20.50;76.50;;;;;;6096414;23;19905;-70
2022/11/19 12:46:08;;;;;;;;;;;20.60;76.60;;;;;;6096896;23;19905;-69
2022/11/19 12:48:42;;;;;;;;;;;20.50;76.60;;;;;;6096587;23;19920;-70
2022/11/19 12:51:38;;;;;;;;;;;20.50;76.80;;;;;;6096606;23;19912;-69
2022/11/19 12:54:11;;;;;;;;;;;20.50;77.30;;;;;;5994568;23;19941;-70
2022/11/19 12:56:41;;;;;;;;;;;20.50;78.10;;;;;;6096859;23;19916;-69
2022/11/19 12:59:10;;;;;;;;;;;20.40;78.70;;;;;;6096238;23;19984;-70
2022/11/19 13:01:38;;;;;;;;;;;20.40;79.10;;;;;;6096648;23;19906;-70
2022/11/19 13:04:10;;;;;;;;;;;20.30;79.80;;;;;;6070876;23;19941;-70
2022/11/19 13:06:42;;;;;;;;;;;20.30;79.90;;;;;;6096671;23;19937;-70
2022/11/19 13:09:21;;;;;;;;;;;20.30;80.30;;;;;;6096178;23;19905;-70
2022/11/19 13:11:52;;;;;;;;;;;20.20;80.10;;;;;;6070833;23;19929;-69
2022/11/19 13:14:25;;;;;;;;;;;20.20;80.10;;;;;;6071474;23;19909;-70
2022/11/19 13:16:52;;;;;;;;;;;20.30;80.30;;;;;;6096348;23;19933;-70
2022/11/19 13:19:28;;;;;;;;;;;20.20;80.50;;;;;;6070746;23;19913;-70
2022/11/19 13:21:58;;;;;;;;;;;20.20;80.60;;;;;;6071831;23;19905;-70
2022/11/19 13:24:27;;;;;;;;;;;20.20;80.40;;;;;;6096825;23;19909;-70
2022/11/19 13:26:54;;;;;;;;;;;20.20;80.40;;;;;;6071084;23;20403;-70
2022/11/19 13:29:24;;;;;;;;;;;20.20;80.10;;;;;;6096541;23;20388;-70
2022/11/19 13:32:01;;;;;;;;;;;20.20;80.10;;;;;;6096438;23;20235;-70
2022/11/19 13:34:33;;;;;;;;;;;20.20;80.10;;;;;;6096280;23;20280;-69
2022/11/19 13:37:18;;;;;;;;;;;20.20;80.00;;;;;;6096264;23;20329;-70
2022/11/19 13:39:46;;;;;;;;;;;20.20;79.90;;;;;;6096495;23;19932;-69
2022/11/19 13:44:58;;;;;;;;;;;20.20;79.80;;;;;;6075174;23;19976;-70
2022/11/19 13:47:26;;;;;;;;;;;20.20;79.70;;;;;;6095932;23;19957;-70
2022/11/19 13:49:57;;;;;;;;;;;20.20;79.70;;;;;;6095912;23;19905;-69
2022/11/19 13:52:29;;;;;;;;;;;20.20;79.40;;;;;;6071243;23;19996;-70
2022/11/19 13:54:56;;;;;;;;;;;20.20;79.20;;;;;;6096875;23;19988;-70
2022/11/19 13:57:29;;;;;;;;;;;20.20;79.30;;;;;;6096113;23;19906;-70
2022/11/19 13:59:57;;;;;;;;;;;20.20;79.10;;;;;;6096410;23;19906;-69
2022/11/19 14:02:36;;;;;;;;;;;20.20;78.90;;;;;;6070668;23;20295;-70
2022/11/19 14:05:23;;;;;;;;;;;20.10;78.90;;;;;;6070801;23;19911;-70
2022/11/19 14:07:59;;;;;;;;;;;20.10;79.10;;;;;;6076073;23;20249;-69
2022/11/19 14:10:28;;;;;;;;;;;20.10;79.40;;;;;;6096069;23;19906;-70
2022/11/19 14:12:57;;;;;;;;;;;20.10;79.50;;;;;;6070865;23;20336;-69
2022/11/19 14:27:16;;;;;;;;;;;20.10;79.50;;;;;;6095541;23;20241;-69
2022/11/19 14:29:45;;;;;;;;;;;20.10;79.10;;;;;;6096059;23;19912;-69
2022/11/19 14:32:12;;;;;;;;;;;20.10;78.90;;;;;;6096060;23;19917;-70
2022/11/19 14:34:43;;;;;;;;;;;20.10;78.50;;;;;;6095924;23;19905;-69
2022/11/19 14:37:20;;;;;;;;;;;20.10;78.20;;;;;;6097149;23;19996;-69
2022/11/19 14:39:48;;;;;;;;;;;20.10;78.00;;;;;;6125202;23;20329;-70
2022/11/19 14:42:15;;;;;;;;;;;20.10;76.80;;;;;;6125209;23;19905;-70
2022/11/19 14:44:43;;;;;;;;;;;20.20;76.80;;;;;;6123849;23;19909;-69
2022/11/19 14:47:22;;;;;;;;;;;20.20;76.50;;;;;;6127284;23;19955;-69
2022/11/19 14:49:49;;;;;;;;;;;20.20;75.70;;;;;;6127079;23;20327;-70
2022/11/19 14:52:32;;;;;;;;;;;20.20;75.30;;;;;;6125525;23;19983;-69
2022/11/19 14:55:03;;;;;;;;;;;20.20;74.90;;;;;;6127301;23;19905;-69
2022/11/19 14:57:29;;;;;;;;;;;20.20;74.40;;;;;;6125617;23;20344;-69